메인 페이지
METAR-TAF:

METAR-TAF

공항 :

스톡홀름 알란다 국제공항

스톡홀름 알란다, 스웨덴

위도: 59-39N, 경도: 017-57E, 고도: 38m

현재 날씨관측

예보는 16분 전, 18:20시(UTC)에 발표되었습니다.
8kt
온도 -3°C
습도 63%
기압 1016 hPa
시정 10km 이상
1500m 미만 상공 구름 및 적란운 없음

METAR: ESSA 201820Z 01008KT CAVOK M03/M09 Q1016 R01L/19//62 R08/19//63 R01R/19//65 NOSIG

시각: 19:36 (18:36 UTC)

예보

예보는 1 시간 6분 전, 17:30시(UTC)에 발표되었습니다.
예보 대상 시간: 20일 18시부터 21일 18시까지 (UTC)
6kt
시정 10km 이상
1500m 미만 상공 구름 및 적란운 없음
확률 40%
21일 08시부터 21일 18시까지 (UTC)
시정: 4000m
약한눈

TAF: ESSA 201730Z 2018/2118 36006KT CAVOK PROB40 2108/2118 4000 -SN

4,000개 이상의 공항 관측 자료 및 예보 (METAR 및 TAF 보고).

지도상에서 검색 가능한 기상관측소가 노란 점과 빨간 점으로 표시되어 있습니다.

기상관측소 명을 보려면 표시 위로 마우스를 이동하세요.

날씨 관측과 예보를 보려면 클릭하세요.

지도 변경 : 확대하려면 엑스 표시가 있는 녹색 버튼, 축소하려면 빼기 표시가 있는 녹색 버튼, 다음 페이지의 지도를 보려면 녹색 화살표를 클릭하세요.


METAR-TAF: